createdAt,value
2022-10-02T00:01:44.677Z,9.59
2022-10-02T00:04:15.060Z,9.68
2022-10-02T00:06:46.654Z,9.57
2022-10-02T00:09:21.129Z,9.66
2022-10-02T00:11:49.979Z,9.69
2022-10-02T00:14:18.497Z,9.60
2022-10-02T00:16:51.771Z,9.67
2022-10-02T00:19:20.524Z,9.73
2022-10-02T00:21:55.518Z,9.72
2022-10-02T00:24:27.875Z,9.72
2022-10-02T00:27:04.376Z,9.70
2022-10-02T00:29:44.312Z,9.79
2022-10-02T00:32:48.250Z,9.77
2022-10-02T00:35:20.947Z,9.78
2022-10-02T00:37:53.914Z,9.74
2022-10-02T00:40:46.853Z,9.74
2022-10-02T00:43:35.147Z,9.79
2022-10-02T00:46:10.847Z,9.79
2022-10-02T00:49:04.961Z,9.75
2022-10-02T00:51:53.186Z,9.79
2022-10-02T00:54:45.999Z,9.84
2022-10-02T00:57:19.832Z,9.89
2022-10-02T01:00:08.662Z,9.93
2022-10-02T01:02:50.248Z,9.93
2022-10-02T01:05:17.738Z,9.87
2022-10-02T01:07:47.261Z,9.93
2022-10-02T01:10:15.138Z,10.06
2022-10-02T01:12:42.443Z,9.96
2022-10-02T01:15:21.055Z,9.98
2022-10-02T01:17:50.464Z,9.77
2022-10-02T01:20:31.300Z,9.81
2022-10-02T01:23:19.304Z,9.82
2022-10-02T01:25:46.315Z,9.92
2022-10-02T01:28:13.312Z,9.69
2022-10-02T01:30:41.810Z,9.61
2022-10-02T01:33:09.956Z,9.49
2022-10-02T01:35:38.525Z,9.39
2022-10-02T01:38:11.307Z,9.38
2022-10-02T01:40:39.999Z,9.34
2022-10-02T01:43:17.335Z,9.53
2022-10-02T01:46:14.560Z,9.49
2022-10-02T01:48:47.949Z,9.69
2022-10-02T01:51:17.615Z,9.69
2022-10-02T01:53:49.340Z,9.62
2022-10-02T01:56:31.408Z,9.74
2022-10-02T01:59:31.681Z,9.70
2022-10-02T02:01:58.428Z,9.73
2022-10-02T02:04:29.430Z,9.82
2022-10-02T02:07:11.641Z,9.84
2022-10-02T02:09:42.123Z,10.05
2022-10-02T02:12:15.748Z,10.15
2022-10-02T02:14:51.931Z,10.07
2022-10-02T02:17:39.089Z,10.24
2022-10-02T02:20:10.313Z,10.14
2022-10-02T02:22:42.487Z,10.18
2022-10-02T02:25:13.539Z,10.22
2022-10-02T02:27:43.198Z,10.37
2022-10-02T02:30:12.278Z,10.40
2022-10-02T02:32:51.564Z,10.42
2022-10-02T02:35:25.920Z,10.43
2022-10-02T02:37:56.471Z,10.57
2022-10-02T02:40:31.007Z,10.55
2022-10-02T02:43:25.126Z,10.54
2022-10-02T02:45:57.726Z,10.48
2022-10-02T02:48:32.215Z,10.47
2022-10-02T02:51:02.996Z,10.43
2022-10-02T02:53:40.737Z,10.46
2022-10-02T02:56:10.506Z,10.38
2022-10-02T02:58:49.062Z,10.45
2022-10-02T03:01:15.963Z,10.50
2022-10-02T03:03:42.825Z,10.36
2022-10-02T03:06:15.733Z,10.24
2022-10-02T03:08:43.352Z,10.00
2022-10-02T03:11:23.714Z,10.05
2022-10-02T03:13:59.682Z,10.19
2022-10-02T03:16:45.310Z,10.30
2022-10-02T03:19:45.852Z,10.09
2022-10-02T03:22:22.852Z,10.09
2022-10-02T03:24:52.134Z,10.21
2022-10-02T03:27:40.204Z,9.97
2022-10-02T03:30:12.363Z,9.85
2022-10-02T03:32:41.213Z,10.10
2022-10-02T03:35:11.815Z,10.13
2022-10-02T03:37:40.235Z,10.13
2022-10-02T03:40:07.538Z,10.17
2022-10-02T03:42:36.013Z,10.29
2022-10-02T03:45:03.665Z,10.33
2022-10-02T03:47:30.493Z,10.23
2022-10-02T03:49:57.166Z,10.19
2022-10-02T03:52:24.525Z,10.26
2022-10-02T03:54:56.040Z,10.23
2022-10-02T03:57:25.238Z,10.23
2022-10-02T03:59:54.970Z,10.13
2022-10-02T04:02:21.789Z,10.29
2022-10-02T04:04:54.306Z,10.31
2022-10-02T04:07:28.943Z,10.32
2022-10-02T04:10:20.130Z,10.32
2022-10-02T04:12:48.188Z,10.35
2022-10-02T04:15:35.659Z,10.33
2022-10-02T04:18:17.804Z,10.38
2022-10-02T04:20:54.588Z,10.28
2022-10-02T04:23:30.181Z,10.25
2022-10-02T04:26:03.772Z,10.14
2022-10-02T04:28:42.699Z,10.18
2022-10-02T04:31:13.557Z,10.11
2022-10-02T04:33:40.896Z,9.99
2022-10-02T04:36:10.652Z,9.92
2022-10-02T04:38:59.081Z,9.99
2022-10-02T04:41:49.089Z,9.88
2022-10-02T04:44:41.981Z,9.84
2022-10-02T04:48:02.939Z,9.81
2022-10-02T04:50:32.507Z,9.65
2022-10-02T04:53:16.100Z,9.69
2022-10-02T04:56:17.788Z,9.74
2022-10-02T04:59:06.666Z,9.70
2022-10-02T05:02:16.645Z,9.68
2022-10-02T05:05:27.301Z,9.63
2022-10-02T05:08:37.462Z,9.66
2022-10-02T05:11:43.072Z,9.62
2022-10-02T05:14:32.830Z,9.62
2022-10-02T05:17:27.517Z,9.62
2022-10-02T05:20:15.753Z,9.52
2022-10-02T05:23:26.721Z,9.47
2022-10-02T05:25:56.302Z,9.52
2022-10-02T05:28:32.098Z,9.55
2022-10-02T05:31:22.068Z,9.42
2022-10-02T05:34:16.802Z,9.39
2022-10-02T05:36:59.075Z,9.55
2022-10-02T05:39:33.716Z,9.44
2022-10-02T05:42:48.115Z,9.46
2022-10-02T05:45:47.329Z,9.45
2022-10-02T05:48:30.175Z,9.46
2022-10-02T05:51:08.090Z,9.44
2022-10-02T05:53:40.705Z,9.27
2022-10-02T05:56:24.909Z,9.34
2022-10-02T05:58:59.735Z,9.25
2022-10-02T06:01:29.185Z,9.28
2022-10-02T06:04:11.289Z,9.21
2022-10-02T06:06:51.730Z,9.21
2022-10-02T06:09:23.116Z,9.24
2022-10-02T06:12:26.692Z,9.28
2022-10-02T06:15:10.507Z,9.28
2022-10-02T06:17:41.572Z,9.26
2022-10-02T06:20:14.160Z,9.24
2022-10-02T06:25:56.431Z,9.31
2022-10-02T06:28:39.242Z,9.11
2022-10-02T06:31:30.897Z,9.16
2022-10-02T06:33:58.083Z,9.21
2022-10-02T06:36:52.527Z,9.22
2022-10-02T06:39:57.320Z,9.22
2022-10-02T06:42:49.480Z,9.17
2022-10-02T06:45:39.173Z,9.29
2022-10-02T06:48:25.824Z,9.62
2022-10-02T06:50:58.623Z,9.48
2022-10-02T06:53:25.565Z,9.56
2022-10-02T06:56:12.585Z,9.52
2022-10-02T06:59:00.636Z,9.64
2022-10-02T07:01:33.340Z,9.68
2022-10-02T07:04:08.878Z,9.55
2022-10-02T07:06:45.158Z,9.75
2022-10-02T07:09:39.748Z,9.74
2022-10-02T07:12:24.634Z,9.84
2022-10-02T07:15:13.863Z,9.90
2022-10-02T07:18:21.261Z,9.92
2022-10-02T07:21:09.462Z,10.04
2022-10-02T07:23:44.917Z,10.09
2022-10-02T07:26:26.822Z,10.12
2022-10-02T07:29:19.791Z,10.28
2022-10-02T07:31:59.104Z,10.36
2022-10-02T07:34:47.357Z,10.57
2022-10-02T07:37:32.148Z,10.53
2022-10-02T07:40:31.223Z,10.58
2022-10-02T07:43:35.646Z,10.70
2022-10-02T07:46:16.939Z,10.78
2022-10-02T07:49:23.147Z,10.68
2022-10-02T07:52:15.304Z,10.59
2022-10-02T07:55:14.513Z,10.56
2022-10-02T07:57:59.964Z,10.60
2022-10-02T08:00:30.299Z,10.59
2022-10-02T08:03:00.432Z,10.77
2022-10-02T08:05:39.583Z,10.98
2022-10-02T08:08:21.075Z,11.17
2022-10-02T08:10:51.970Z,11.27
2022-10-02T08:13:23.037Z,11.33
2022-10-02T08:15:51.085Z,11.41
2022-10-02T08:18:36.447Z,11.42
2022-10-02T08:21:06.003Z,11.43
2022-10-02T08:23:45.398Z,11.40
2022-10-02T08:26:23.239Z,11.44
2022-10-02T08:29:01.994Z,11.34
2022-10-02T08:31:28.835Z,11.43
2022-10-02T08:33:57.549Z,11.48
2022-10-02T08:36:33.378Z,11.52
2022-10-02T08:39:28.341Z,11.64
2022-10-02T08:42:27.136Z,11.67
2022-10-02T08:45:08.817Z,11.72
2022-10-02T08:48:15.031Z,11.82
2022-10-02T08:50:51.643Z,11.85
2022-10-02T08:53:44.429Z,11.84
2022-10-02T08:56:26.488Z,11.89
2022-10-02T08:59:15.162Z,11.93
2022-10-02T09:02:21.546Z,11.91
2022-10-02T09:05:07.174Z,11.97
2022-10-02T09:08:09.228Z,12.03
2022-10-02T09:11:01.598Z,12.14
2022-10-02T09:13:57.464Z,12.11
2022-10-02T09:16:37.263Z,12.15
2022-10-02T09:19:19.302Z,12.17
2022-10-02T09:22:00.383Z,12.31
2022-10-02T09:24:46.715Z,12.40
2022-10-02T09:27:38.170Z,12.47
2022-10-02T09:30:34.038Z,12.53
2022-10-02T09:33:16.372Z,12.59
2022-10-02T09:36:11.768Z,12.64
2022-10-02T09:38:57.788Z,12.72
2022-10-02T09:41:49.571Z,12.79
2022-10-02T09:44:36.255Z,12.81
2022-10-02T09:47:19.169Z,12.89
2022-10-02T09:50:18.450Z,12.90
2022-10-02T09:53:03.749Z,12.97
2022-10-02T09:55:36.862Z,13.06
2022-10-02T09:58:06.654Z,13.16
2022-10-02T10:00:33.440Z,13.21
2022-10-02T10:03:31.104Z,13.25
2022-10-02T10:06:12.747Z,13.28
2022-10-02T10:09:01.225Z,13.27
2022-10-02T10:11:47.902Z,13.30
2022-10-02T10:14:44.962Z,13.32
2022-10-02T10:17:30.871Z,13.40
2022-10-02T10:20:36.784Z,13.42
2022-10-02T10:23:15.529Z,13.47
2022-10-02T10:25:54.387Z,13.52
2022-10-02T10:28:57.683Z,13.49
2022-10-02T10:31:47.224Z,13.52
2022-10-02T10:34:48.927Z,13.59
2022-10-02T10:38:08.418Z,13.52
2022-10-02T10:41:11.148Z,13.61
2022-10-02T10:43:56.199Z,13.71
2022-10-02T10:46:54.166Z,13.65
2022-10-02T10:49:57.687Z,13.66
2022-10-02T10:53:04.122Z,13.81
2022-10-02T10:56:02.716Z,13.90
2022-10-02T10:58:43.587Z,13.91
2022-10-02T11:01:38.577Z,13.94
2022-10-02T11:04:52.136Z,14.05
2022-10-02T11:08:01.176Z,14.10
2022-10-02T11:11:07.917Z,14.19
2022-10-02T11:13:37.729Z,14.22
2022-10-02T11:16:33.889Z,14.36
2022-10-02T11:19:26.948Z,14.40
2022-10-02T11:22:14.734Z,14.43
2022-10-02T11:24:56.803Z,14.45
2022-10-02T11:27:48.289Z,14.43
2022-10-02T11:30:15.525Z,14.57
2022-10-02T11:32:42.285Z,14.64
2022-10-02T11:35:48.240Z,14.63
2022-10-02T11:38:32.559Z,14.83
2022-10-02T11:41:28.780Z,14.87
2022-10-02T11:44:16.899Z,14.79
2022-10-02T11:47:09.287Z,14.87
2022-10-02T11:49:41.732Z,14.94
2022-10-02T11:52:39.451Z,15.13
2022-10-02T11:55:28.226Z,15.07
2022-10-02T11:58:28.504Z,15.13
2022-10-02T12:01:32.538Z,15.02
2022-10-02T12:04:36.854Z,15.14
2022-10-02T12:07:23.921Z,15.09
2022-10-02T12:10:28.871Z,15.09
2022-10-02T12:13:24.598Z,14.99
2022-10-02T12:16:09.403Z,14.91
2022-10-02T12:18:54.932Z,14.86
2022-10-02T12:21:59.894Z,14.78
2022-10-02T12:25:30.283Z,14.67
2022-10-02T12:28:03.118Z,14.76
2022-10-02T12:30:44.544Z,14.74
2022-10-02T12:33:17.109Z,14.74
2022-10-02T12:35:58.816Z,14.87
2022-10-02T12:38:52.399Z,14.87
2022-10-02T12:41:34.589Z,15.17
2022-10-02T12:44:18.557Z,15.33
2022-10-02T12:47:12.852Z,15.24
2022-10-02T12:50:04.455Z,15.55
2022-10-02T12:53:05.236Z,15.87
2022-10-02T12:55:34.751Z,16.35
2022-10-02T12:58:23.718Z,16.64
2022-10-02T13:01:30.834Z,16.89
2022-10-02T13:04:26.655Z,17.08
2022-10-02T13:07:13.593Z,16.98
2022-10-02T13:10:19.666Z,17.25
2022-10-02T13:13:03.729Z,17.25
2022-10-02T13:15:54.761Z,17.83
2022-10-02T13:18:25.574Z,17.75
2022-10-02T13:21:47.427Z,18.05
2022-10-02T13:24:35.842Z,18.21
2022-10-02T13:27:16.996Z,18.21
2022-10-02T13:30:16.264Z,18.46
2022-10-02T13:32:52.926Z,18.90
2022-10-02T13:35:29.572Z,18.48
2022-10-02T13:38:20.887Z,18.28
2022-10-02T13:41:02.961Z,18.26
2022-10-02T13:43:34.632Z,18.03
2022-10-02T13:46:09.228Z,18.14
2022-10-02T13:49:13.310Z,18.22
2022-10-02T13:51:50.209Z,18.24
2022-10-02T13:54:30.471Z,18.27
2022-10-02T13:57:12.761Z,17.70
2022-10-02T13:59:58.303Z,17.77
2022-10-02T14:02:35.359Z,17.28
2022-10-02T14:05:39.849Z,17.18
2022-10-02T14:08:28.371Z,16.89
2022-10-02T14:11:18.092Z,16.82
2022-10-02T14:13:53.535Z,16.93
2022-10-02T14:16:58.824Z,17.33
2022-10-02T14:19:53.535Z,17.11
2022-10-02T14:22:29.094Z,17.00
2022-10-02T14:25:22.888Z,16.91
2022-10-02T14:27:57.625Z,17.33
2022-10-02T14:30:37.924Z,17.94
2022-10-02T14:33:37.506Z,17.64
2022-10-02T14:36:13.222Z,17.54
2022-10-02T14:38:49.713Z,17.07
2022-10-02T14:41:51.869Z,17.70
2022-10-02T14:44:44.404Z,17.51
2022-10-02T14:47:23.853Z,17.38
2022-10-02T14:50:08.603Z,17.31
2022-10-02T14:52:46.378Z,17.00
2022-10-02T14:55:25.374Z,16.90
2022-10-02T14:58:16.291Z,16.86
2022-10-02T15:01:15.077Z,16.55
2022-10-02T15:03:57.237Z,16.57
2022-10-02T15:07:01.067Z,16.63
2022-10-02T15:09:27.769Z,16.32
2022-10-02T15:12:08.821Z,16.31
2022-10-02T15:14:35.447Z,16.35
2022-10-02T15:17:34.368Z,16.24
2022-10-02T15:20:22.789Z,16.25
2022-10-02T15:23:04.037Z,16.25
2022-10-02T15:25:42.557Z,16.09
2022-10-02T15:28:36.217Z,15.99
2022-10-02T15:31:17.247Z,16.05
2022-10-02T15:33:52.422Z,16.12
2022-10-02T15:36:35.486Z,16.09
2022-10-02T15:39:19.417Z,16.04
2022-10-02T15:41:48.979Z,15.96
2022-10-02T15:44:36.771Z,16.71
2022-10-02T15:47:22.519Z,16.75
2022-10-02T15:50:08.105Z,17.20
2022-10-02T15:52:34.837Z,16.98
2022-10-02T15:55:23.464Z,17.00
2022-10-02T15:58:08.442Z,16.94
2022-10-02T16:01:02.430Z,16.74
2022-10-02T16:03:48.149Z,16.70
2022-10-02T16:06:33.736Z,16.59
2022-10-02T16:09:28.493Z,16.54
2022-10-02T16:12:18.103Z,16.55
2022-10-02T16:14:52.487Z,16.17
2022-10-02T16:17:24.038Z,16.22
2022-10-02T16:20:11.072Z,16.01
2022-10-02T16:22:56.269Z,15.87
2022-10-02T16:25:31.341Z,15.68
2022-10-02T16:28:17.000Z,15.62
2022-10-02T16:31:23.821Z,15.53
2022-10-02T16:34:28.113Z,15.47
2022-10-02T16:37:01.246Z,15.43
2022-10-02T16:39:34.645Z,15.40
2022-10-02T16:42:11.139Z,15.38
2022-10-02T16:44:57.028Z,15.32
2022-10-02T16:47:43.600Z,15.23
2022-10-02T16:50:24.074Z,15.03
2022-10-02T16:53:03.063Z,15.01
2022-10-02T16:55:37.273Z,14.83
2022-10-02T16:58:27.427Z,14.83
2022-10-02T17:01:07.413Z,14.67
2022-10-02T17:03:44.708Z,14.47
2022-10-02T17:06:18.012Z,14.53
2022-10-02T17:09:14.787Z,14.51
2022-10-02T17:11:51.819Z,14.29
2022-10-02T17:14:43.483Z,14.34
2022-10-02T17:17:42.482Z,14.07
2022-10-02T17:20:28.924Z,14.54
2022-10-02T17:23:03.161Z,14.13
2022-10-02T17:25:32.527Z,13.98
2022-10-02T17:28:06.723Z,14.20
2022-10-02T17:31:01.751Z,14.05
2022-10-02T17:33:32.375Z,14.12
2022-10-02T17:36:05.482Z,14.03
2022-10-02T17:38:47.411Z,14.09
2022-10-02T17:41:38.598Z,14.07
2022-10-02T17:44:14.292Z,13.95
2022-10-02T17:47:04.524Z,13.74
2022-10-02T17:50:00.041Z,13.73
2022-10-02T17:53:04.701Z,13.73
2022-10-02T17:55:57.558Z,13.66
2022-10-02T17:58:37.479Z,13.72
2022-10-02T18:01:16.565Z,13.61
2022-10-02T18:03:55.937Z,13.77
2022-10-02T18:06:50.266Z,13.65
2022-10-02T18:09:36.455Z,13.59
2022-10-02T18:12:07.143Z,13.63
2022-10-02T18:15:15.443Z,13.63
2022-10-02T18:18:08.211Z,13.66
2022-10-02T18:20:44.599Z,13.35
2022-10-02T18:23:48.699Z,13.56
2022-10-02T18:27:22.831Z,13.51
2022-10-02T18:29:58.949Z,13.39
2022-10-02T18:33:10.630Z,13.40
2022-10-02T18:36:14.821Z,13.30
2022-10-02T18:38:50.474Z,13.32
2022-10-02T18:41:20.123Z,13.25
2022-10-02T18:43:58.976Z,13.22
2022-10-02T18:46:53.545Z,13.28
2022-10-02T18:49:47.099Z,13.13
2022-10-02T18:52:37.127Z,13.08
2022-10-02T18:55:25.329Z,12.83
2022-10-02T18:58:04.523Z,12.74
2022-10-02T19:00:56.785Z,12.70
2022-10-02T19:03:39.439Z,12.54
2022-10-02T19:06:15.569Z,12.60
2022-10-02T19:09:04.075Z,12.67
2022-10-02T19:14:46.015Z,12.47
2022-10-02T19:17:14.229Z,12.48
2022-10-02T19:19:42.431Z,12.47
2022-10-02T19:22:21.906Z,12.44
2022-10-02T19:24:55.465Z,12.37
2022-10-02T19:27:30.069Z,12.30
2022-10-02T19:29:59.372Z,12.41
2022-10-02T19:32:43.476Z,12.35
2022-10-02T19:35:18.479Z,12.39
2022-10-02T19:37:48.760Z,12.32
2022-10-02T19:40:23.234Z,12.27
2022-10-02T19:42:52.601Z,12.22
2022-10-02T19:45:26.875Z,12.08
2022-10-02T19:48:00.181Z,12.05
2022-10-02T19:50:37.968Z,12.09
2022-10-02T19:53:07.933Z,12.06
2022-10-02T19:55:39.769Z,12.06
2022-10-02T19:58:17.621Z,11.93
2022-10-02T20:00:44.554Z,11.92
2022-10-02T20:03:23.444Z,11.93
2022-10-02T20:05:54.057Z,11.74
2022-10-02T20:08:25.403Z,11.70
2022-10-02T20:10:58.519Z,11.63
2022-10-02T20:13:42.482Z,11.50
2022-10-02T20:16:43.758Z,11.67
2022-10-02T20:19:18.995Z,11.49
2022-10-02T20:21:52.663Z,11.75
2022-10-02T20:24:29.703Z,11.86
2022-10-02T20:27:01.604Z,11.76
2022-10-02T20:29:34.709Z,11.77
2022-10-02T20:32:07.720Z,11.60
2022-10-02T20:34:44.866Z,11.82
2022-10-02T20:37:23.758Z,11.71
2022-10-02T20:39:56.716Z,11.78
2022-10-02T20:42:41.326Z,11.43
2022-10-02T20:45:12.195Z,11.40
2022-10-02T20:48:14.473Z,11.37
2022-10-02T20:50:56.283Z,11.32
2022-10-02T20:53:48.077Z,11.28
2022-10-02T20:56:21.128Z,11.48
2022-10-02T20:59:00.072Z,11.36
2022-10-02T21:01:37.456Z,11.31
2022-10-02T21:06:36.687Z,11.65
2022-10-02T21:09:15.280Z,11.62
2022-10-02T21:12:00.246Z,11.54
2022-10-02T21:14:39.560Z,11.48
2022-10-02T21:17:38.694Z,11.08
2022-10-02T21:20:33.437Z,10.84
2022-10-02T21:23:34.862Z,10.93
2022-10-02T21:26:10.656Z,11.14
2022-10-02T21:29:04.703Z,11.32
2022-10-02T21:32:21.609Z,11.52
2022-10-02T21:35:10.372Z,11.57
2022-10-02T21:37:56.172Z,11.53
2022-10-02T21:40:38.150Z,11.52
2022-10-02T21:43:26.059Z,11.35
2022-10-02T21:49:27.754Z,11.18
2022-10-02T21:52:00.693Z,11.13
2022-10-02T21:54:45.848Z,11.16
2022-10-02T21:57:31.282Z,10.93
2022-10-02T22:00:13.041Z,10.73
2022-10-02T22:02:59.398Z,10.73
2022-10-02T22:05:47.185Z,10.56
2022-10-02T22:08:13.939Z,10.61
2022-10-02T22:10:47.693Z,10.78
2022-10-02T22:13:36.038Z,10.55
2022-10-02T22:16:22.314Z,10.67
2022-10-02T22:19:02.420Z,10.87
2022-10-02T22:21:41.367Z,10.91
2022-10-02T22:24:11.201Z,10.83
2022-10-02T22:26:52.919Z,10.88
2022-10-02T22:29:27.830Z,10.88
2022-10-02T22:32:34.738Z,11.06
2022-10-02T22:35:17.644Z,11.16
2022-10-02T22:38:05.151Z,11.08
2022-10-02T22:40:43.771Z,10.94
2022-10-02T22:43:18.501Z,11.11
2022-10-02T22:46:00.171Z,11.08
2022-10-02T22:48:44.905Z,10.92
2022-10-02T22:51:22.150Z,11.05
2022-10-02T22:53:53.658Z,11.02
2022-10-02T22:56:28.783Z,10.77
2022-10-02T22:59:02.459Z,10.42
2022-10-02T23:01:59.388Z,10.27
2022-10-02T23:04:36.459Z,10.35
2022-10-02T23:07:05.905Z,10.45
2022-10-02T23:09:46.591Z,10.62
2022-10-02T23:12:23.333Z,10.69
2022-10-02T23:15:17.465Z,10.37
2022-10-02T23:17:58.263Z,10.22
2022-10-02T23:20:49.297Z,10.41
2022-10-02T23:23:23.178Z,10.19
2022-10-02T23:25:53.895Z,9.92
2022-10-02T23:28:26.741Z,9.94
2022-10-02T23:31:30.334Z,10.00
2022-10-02T23:34:08.849Z,10.12
2022-10-02T23:36:47.643Z,10.19
2022-10-02T23:39:21.650Z,10.19
2022-10-02T23:41:51.200Z,10.04
2022-10-02T23:44:37.098Z,9.86
2022-10-02T23:47:16.196Z,9.91
2022-10-02T23:49:46.679Z,10.09
2022-10-02T23:52:32.073Z,10.10
2022-10-02T23:55:14.151Z,10.23
2022-10-02T23:57:59.667Z,10.13
